GRZ weather

Graz Airport
Graz, Styria, Austria

Public forecast

Using degrees Celsius for public forecast. Weather courtesy of forecast.io.

Current aviation weather report (METAR) for Graz Airport

Retrieved 2019/10/24 03:20 UTC (0 seconds ago):

LOWG 240320Z AUTO 00000KT 0350 R17/0750N R35/0400N FG FEW000 BKN001 07/06 Q1016

Aviation forecast (TAF) for Graz Airport

Retrieved 2019-10-24 00:21 UTC (3 hours ago):

TAF TAF LOWG 232315Z 2400/2424 VRB02KT CAVOK TX23/2414Z TN05/2405Z TEMPO 2400/2408 0300 FG VV001 TEMPO 2411/2416 18010KT TEMPO 2420/2424 1200 BCFG FEW001